^^
Saratoga-Weather Station Historical Data
Daily Summary for May 10, 2021 Units:  Both    English   Metric
Daily Weekly Monthly Yearly Custom
  High: Low: Average:
Temperature: 44.2 °F /  6.8 °C 31.3 °F /  -0.4 °C 36.3 °F /  2.4 °C
Dew Point: 40.1 °F /  4.5 °C 30.2 °F /  -1 °C 34.7 °F /  1.5 °C
Humidity: 97% 84% 94%
Wind Speed: 2.9mph /  4.7km/h - 0.1mph /  0.2km/h
Wind Gust: 4mph /  6.4km/h - -
Wind- - ESE
Pressure: 30.3 in /  1025.4 hPa 30.2 in /  1023.7 hPa -
Precipitation: 0.01 in /  0.2 mm    
Historical Graphs
 
 
Tabular Data for May 10, 2021
Time Temperature Dew Point Pressure Wind Wind Speed Wind Gust Humidity Rainfall Rate (Hourly) solar
00:01 36.3 °F /  2.4 °C 35.1 °F /  1.7 °C 30.3in /  1025.4hPa Calm     95% 0in /  0.0mm 0 W/m2
00:06 36.1 °F /  2.3 °C 34.9 °F /  1.6 °C 30.3in /  1025.1hPa Calm     95% 0in /  0.0mm 0 W/m2
00:11 36.1 °F /  2.3 °C 34.9 °F /  1.6 °C 30.3in /  1025.1hPa Calm     95% 0in /  0.0mm 0 W/m2
00:16 36 °F /  2.2 °C 34.7 °F /  1.5 °C 30.3in /  1025.4hPa Calm     95% 0in /  0.0mm 0 W/m2
00:21 35.8 °F /  2.1 °C 34.2 °F /  1.2 °C 30.3in /  1025.1hPa Calm     94% 0in /  0.0mm 0 W/m2
00:26 35.6 °F /  2 °C 34.3 °F /  1.3 °C 30.3in /  1025.1hPa Calm     95% 0in /  0.0mm 0 W/m2
00:31 35.6 °F /  2 °C 34.3 °F /  1.3 °C 30.3in /  1025.1hPa Calm     95% 0in /  0.0mm 0 W/m2
00:37 35.4 °F /  1.9 °C 34.2 °F /  1.2 °C 30.3in /  1025.1hPa Calm     95% 0in /  0.0mm 0 W/m2
00:42 35.2 °F /  1.8 °C 34 °F /  1.1 °C 30.3in /  1025.1hPa Calm     95% 0in /  0.0mm 0 W/m2
00:47 35.2 °F /  1.8 °C 34 °F /  1.1 °C 30.3in /  1025.1hPa Calm     95% 0in /  0.0mm 0 W/m2
00:52 35.1 °F /  1.7 °C 33.8 °F /  1 °C 30.3in /  1025.1hPa Calm     95% 0in /  0.0mm 0 W/m2
00:57 34.9 °F /  1.6 °C 33.6 °F /  0.9 °C 30.3in /  1025.4hPa Calm     95% 0in /  0.0mm 0 W/m2
01:02 34.7 °F /  1.5 °C 33.4 °F /  0.8 °C 30.3in /  1025.4hPa Calm     95% 0in /  0.0mm 0 W/m2
01:07 34.9 °F /  1.6 °C 33.6 °F /  0.9 °C 30.3in /  1025.4hPa Calm     95% 0in /  0.0mm 0 W/m2
01:12 35.1 °F /  1.7 °C 33.8 °F /  1 °C 30.3in /  1025.1hPa Calm     95% 0in /  0.0mm 0 W/m2
01:17 35.2 °F /  1.8 °C 34 °F /  1.1 °C 30.3in /  1025.1hPa Calm     95% 0in /  0.0mm 0 W/m2
01:22 35.2 °F /  1.8 °C 34 °F /  1.1 °C 30.3in /  1025.1hPa Calm     95% 0in /  0.0mm 0 W/m2
01:27 35.2 °F /  1.8 °C 34 °F /  1.1 °C 30.3in /  1025.1hPa Calm     95% 0in /  0.0mm 0 W/m2
01:32 35.1 °F /  1.7 °C 33.8 °F /  1 °C 30.3in /  1025.1hPa Calm     95% 0in /  0.0mm 0 W/m2
01:37 34.9 °F /  1.6 °C 33.6 °F /  0.9 °C 30.3in /  1025.1hPa Calm   1mph /  1.6km/h 95% 0in /  0.0mm 0 W/m2
01:42 34.9 °F /  1.6 °C 33.6 °F /  0.9 °C 30.3in /  1025.1hPa Calm     95% 0in /  0.0mm 0 W/m2
01:47 34.7 °F /  1.5 °C 33.4 °F /  0.8 °C 30.3in /  1025.1hPa Calm     95% 0in /  0.0mm 0 W/m2
01:52 34.5 °F /  1.4 °C 33.3 °F /  0.7 °C 30.3in /  1025.1hPa Calm     95% 0in /  0.0mm 0 W/m2
01:57 34.3 °F /  1.3 °C 33.1 °F /  0.6 °C 30.3in /  1025.1hPa Calm     95% 0in /  0.0mm 0 W/m2
02:02 34.3 °F /  1.3 °C 33.1 °F /  0.6 °C 30.3in /  1025.1hPa Calm     95% 0in /  0.0mm 0 W/m2
02:07 34.3 °F /  1.3 °C 33.1 °F /  0.6 °C 30.3in /  1025.1hPa Calm     95% 0in /  0.0mm 0 W/m2
02:12 34.3 °F /  1.3 °C 33.1 °F /  0.6 °C 30.3in /  1025.1hPa Calm     95% 0in /  0.0mm 0 W/m2
02:17 34.3 °F /  1.3 °C 33.1 °F /  0.6 °C 30.3in /  1025.1hPa Calm     95% 0in /  0.0mm 0 W/m2
02:22 34.3 °F /  1.3 °C 33.3 °F /  0.7 °C 30.3in /  1025.1hPa Calm     96% 0in /  0.0mm 0 W/m2
02:27 34.5 °F /  1.4 °C 33.4 °F /  0.8 °C 30.3in /  1025.1hPa Calm     96% 0in /  0.0mm 0 W/m2
02:32 34.7 °F /  1.5 °C 33.6 °F /  0.9 °C 30.3in /  1025.1hPa Calm     96% 0in /  0.0mm 0 W/m2
02:37 34.5 °F /  1.4 °C 33.4 °F /  0.8 °C 30.3in /  1025.4hPa Calm     96% 0in /  0.0mm 0 W/m2
02:42 34.3 °F /  1.3 °C 33.1 °F /  0.6 °C 30.3in /  1025.4hPa Calm     95% 0in /  0.0mm 0 W/m2
02:47 34.3 °F /  1.3 °C 33.3 °F /  0.7 °C 30.3in /  1025.4hPa Calm     96% 0in /  0.0mm 0 W/m2
02:52 34.3 °F /  1.3 °C 33.3 °F /  0.7 °C 30.3in /  1025.4hPa Calm     96% 0in /  0.0mm 0 W/m2
02:57 34.3 °F /  1.3 °C 33.3 °F /  0.7 °C 30.3in /  1025.4hPa Calm     96% 0in /  0.0mm 0 W/m2
03:02 34.3 °F /  1.3 °C 33.3 °F /  0.7 °C 30.3in /  1025.4hPa Calm     96% 0in /  0.0mm 0 W/m2
03:07 34.2 °F /  1.2 °C 32.9 °F /  0.5 °C 30.3in /  1025.4hPa Calm     95% 0in /  0.0mm 0 W/m2
03:12 34 °F /  1.1 °C 32.7 °F /  0.4 °C 30.3in /  1025.4hPa Calm     95% 0in /  0.0mm 0 W/m2
03:17 34 °F /  1.1 °C 32.7 °F /  0.4 °C 30.3in /  1025.4hPa Calm     95% 0in /  0.0mm 0 W/m2
03:22 33.6 °F /  0.9 °C 32.4 °F /  0.2 °C 30.3in /  1025.4hPa Calm     95% 0in /  0.0mm 0 W/m2
03:27 33.6 °F /  0.9 °C 32.5 °F /  0.3 °C 30.3in /  1025.1hPa Calm     96% 0in /  0.0mm 0 W/m2
03:32 33.4 °F /  0.8 °C 32.2 °F /  0.1 °C 30.3in /  1025.1hPa Calm     95% 0in /  0.0mm 0 W/m2
03:37 33.3 °F /  0.7 °C 32 °F /  0 °C 30.3in /  1025.1hPa Calm     95% 0in /  0.0mm 0 W/m2
03:42 33.1 °F /  0.6 °C 31.8 °F /  -0.1 °C 30.3in /  1025.1hPa Calm     95% 0in /  0.0mm 0 W/m2
03:47 32.9 °F /  0.5 °C 31.6 °F /  -0.2 °C 30.3in /  1024.7hPa Calm     95% 0in /  0.0mm 0 W/m2
03:52 32.7 °F /  0.4 °C 31.5 °F /  -0.3 °C 30.3in /  1024.7hPa Calm     95% 0in /  0.0mm 0 W/m2
03:57 32.5 °F /  0.3 °C 31.3 °F /  -0.4 °C 30.3in /  1024.7hPa Calm     95% 0in /  0.0mm 0 W/m2
04:02 32.5 °F /  0.3 °C 31.5 °F /  -0.3 °C 30.3in /  1024.7hPa Calm     96% 0in /  0.0mm 0 W/m2
04:07 32.5 °F /  0.3 °C 31.5 °F /  -0.3 °C 30.3in /  1024.4hPa Calm     96% 0in /  0.0mm 0 W/m2
04:12 32.4 °F /  0.2 °C 31.1 °F /  -0.5 °C 30.3in /  1024.4hPa Calm     95% 0in /  0.0mm 0 W/m2
04:17 32.4 °F /  0.2 °C 31.3 °F /  -0.4 °C 30.3in /  1024.4hPa Calm     96% 0in /  0.0mm 0 W/m2
04:22 32.4 °F /  0.2 °C 31.3 °F /  -0.4 °C 30.3in /  1024.7hPa Calm     96% 0in /  0.0mm 0 W/m2
04:27 32.5 °F /  0.3 °C 31.5 °F /  -0.3 °C 30.3in /  1024.7hPa Calm     96% 0in /  0.0mm 0 W/m2
04:32 32.5 °F /  0.3 °C 31.5 °F /  -0.3 °C 30.3in /  1024.4hPa Calm     96% 0in /  0.0mm 0 W/m2
04:37 32.5 °F /  0.3 °C 31.5 °F /  -0.3 °C 30.3in /  1024.4hPa Calm     96% 0in /  0.0mm 0 W/m2
04:42 32.5 °F /  0.3 °C 31.5 °F /  -0.3 °C 30.3in /  1024.4hPa Calm     96% 0in /  0.0mm 0 W/m2
04:47 32.5 °F /  0.3 °C 31.5 °F /  -0.3 °C 30.3in /  1024.4hPa Calm     96% 0in /  0.0mm 0 W/m2
04:52 32.5 °F /  0.3 °C 31.5 °F /  -0.3 °C 30.2in /  1024.0hPa Calm     96% 0in /  0.0mm 0 W/m2
04:57 32.4 °F /  0.2 °C 31.3 °F /  -0.4 °C 30.3in /  1024.4hPa Calm     96% 0in /  0.0mm 0 W/m2
05:02 32.4 °F /  0.2 °C 31.3 °F /  -0.4 °C 30.2in /  1024.0hPa Calm     96% 0in /  0.0mm 0 W/m2
05:07 32.2 °F /  0.1 °C 31.1 °F /  -0.5 °C 30.2in /  1024.0hPa Calm     96% 0in /  0.0mm 0 W/m2
05:12 32.2 °F /  0.1 °C 31.1 °F /  -0.5 °C 30.2in /  1024.0hPa Calm     96% 0in /  0.0mm 0 W/m2
05:17 32.2 °F /  0.1 °C 31.1 °F /  -0.5 °C 30.2in /  1024.0hPa Calm   1mph /  1.6km/h 96% 0in /  0.0mm 0 W/m2
05:22 32.2 °F /  0.1 °C 31.1 °F /  -0.5 °C 30.2in /  1024.0hPa Calm     96% 0in /  0.0mm 0 W/m2
05:27 32.2 °F /  0.1 °C 31.1 °F /  -0.5 °C 30.2in /  1023.7hPa Calm     96% 0in /  0.0mm 0 W/m2
05:32 32.2 °F /  0.1 °C 31.1 °F /  -0.5 °C 30.2in /  1023.7hPa Calm     96% 0in /  0.0mm 0 W/m2
05:37 32 °F /  0 °C 30.9 °F /  -0.6 °C 30.2in /  1023.7hPa Calm     96% 0in /  0.0mm 0 W/m2
05:42 32 °F /  0 °C 30.9 °F /  -0.6 °C 30.2in /  1024.0hPa Calm     96% 0in /  0.0mm 0 W/m2
05:48 31.8 °F /  -0.1 °C 30.7 °F /  -0.7 °C 30.2in /  1024.0hPa Calm   2mph /  3.2km/h 96% 0in /  0.0mm 0 W/m2
05:53 32 °F /  0 °C 30.9 °F /  -0.6 °C 30.2in /  1024.0hPa Calm     96% 0in /  0.0mm 0 W/m2
05:58 32 °F /  0 °C 30.9 °F /  -0.6 °C 30.3in /  1024.4hPa Calm     96% 0in /  0.0mm 0 W/m2
06:03 31.8 °F /  -0.1 °C 30.7 °F /  -0.7 °C 30.3in /  1024.4hPa Calm     96% 0in /  0.0mm 0 W/m2
06:08 31.8 °F /  -0.1 °C 30.7 °F /  -0.7 °C 30.3in /  1024.4hPa Calm     96% 0in /  0.0mm 0 W/m2
06:13 31.8 °F /  -0.1 °C 30.7 °F /  -0.7 °C 30.3in /  1024.4hPa Calm     96% 0in /  0.0mm 0 W/m2
06:18 31.8 °F /  -0.1 °C 30.7 °F /  -0.7 °C 30.3in /  1024.4hPa Calm     96% 0in /  0.0mm 0 W/m2
06:23 31.8 °F /  -0.1 °C 30.7 °F /  -0.7 °C 30.2in /  1024.0hPa Calm     96% 0in /  0.0mm 0 W/m2
06:28 31.8 °F /  -0.1 °C 30.7 °F /  -0.7 °C 30.2in /  1024.0hPa Calm     96% 0in /  0.0mm 0 W/m2
06:33 31.6 °F /  -0.2 °C 30.6 °F /  -0.8 °C 30.2in /  1024.0hPa Calm     96% 0in /  0.0mm 0 W/m2
06:38 31.6 °F /  -0.2 °C 30.6 °F /  -0.8 °C 30.3in /  1024.4hPa Calm     96% 0in /  0.0mm 0 W/m2
06:43 31.6 °F /  -0.2 °C 30.6 °F /  -0.8 °C 30.3in /  1024.4hPa Calm     96% 0in /  0.0mm 0 W/m2
06:48 31.6 °F /  -0.2 °C 30.6 °F /  -0.8 °C 30.3in /  1024.4hPa Calm     96% 0in /  0.0mm 0 W/m2
06:53 31.6 °F /  -0.2 °C 30.6 °F /  -0.8 °C 30.3in /  1024.7hPa Calm     96% 0in /  0.0mm 0 W/m2
06:58 31.6 °F /  -0.2 °C 30.6 °F /  -0.8 °C 30.3in /  1024.4hPa Calm     96% 0in /  0.0mm 0 W/m2
07:03 31.6 °F /  -0.2 °C 30.6 °F /  -0.8 °C 30.3in /  1024.4hPa Calm     96% 0in /  0.0mm 0 W/m2
07:08 31.5 °F /  -0.3 °C 30.4 °F /  -0.9 °C 30.3in /  1024.4hPa Calm     96% 0in /  0.0mm 0 W/m2
07:13 31.5 °F /  -0.3 °C 30.4 °F /  -0.9 °C 30.3in /  1024.4hPa Calm     96% 0in /  0.0mm 0 W/m2
07:18 31.3 °F /  -0.4 °C 30.2 °F /  -1 °C 30.3in /  1024.4hPa Calm     96% 0in /  0.0mm 0 W/m2
07:23 31.3 °F /  -0.4 °C 30.2 °F /  -1 °C 30.2in /  1024.0hPa Calm     96% 0in /  0.0mm 0 W/m2
07:28 31.3 °F /  -0.4 °C 30.2 °F /  -1 °C 30.2in /  1024.0hPa Calm     96% 0in /  0.0mm 0 W/m2
07:33 31.3 °F /  -0.4 °C 30.2 °F /  -1 °C 30.2in /  1024.0hPa Calm     96% 0in /  0.0mm 0 W/m2
07:38 31.3 °F /  -0.4 °C 30.2 °F /  -1 °C 30.2in /  1024.0hPa Calm     96% 0in /  0.0mm 0 W/m2
07:43 31.5 °F /  -0.3 °C 30.4 °F /  -0.9 °C 30.2in /  1024.0hPa Calm     96% 0in /  0.0mm 0 W/m2
07:48 31.5 °F /  -0.3 °C 30.4 °F /  -0.9 °C 30.2in /  1024.0hPa Calm     96% 0in /  0.0mm 5 W/m2
07:53 31.6 °F /  -0.2 °C 30.6 °F /  -0.8 °C 30.2in /  1024.0hPa Calm     96% 0in /  0.0mm 5 W/m2
07:58 31.6 °F /  -0.2 °C 30.6 °F /  -0.8 °C 30.3in /  1024.4hPa Calm     96% 0in /  0.0mm 7 W/m2
08:03 31.6 °F /  -0.2 °C 30.6 °F /  -0.8 °C 30.3in /  1024.4hPa Calm     96% 0in /  0.0mm 9 W/m2
08:08 31.6 °F /  -0.2 °C 30.6 °F /  -0.8 °C 30.3in /  1024.4hPa Calm     96% 0in /  0.0mm 11 W/m2
08:13 31.6 °F /  -0.2 °C 30.6 °F /  -0.8 °C 30.3in /  1024.4hPa Calm     96% 0in /  0.0mm 12 W/m2
08:18 31.6 °F /  -0.2 °C 30.6 °F /  -0.8 °C 30.3in /  1024.7hPa Calm     96% 0in /  0.0mm 18 W/m2
08:23 31.6 °F /  -0.2 °C 30.6 °F /  -0.8 °C 30.3in /  1024.7hPa Calm     96% 0in /  0.0mm 19 W/m2
08:28 31.6 °F /  -0.2 °C 30.6 °F /  -0.8 °C 30.3in /  1024.7hPa Calm     96% 0in /  0.0mm 23 W/m2
08:33 31.6 °F /  -0.2 °C 30.6 °F /  -0.8 °C 30.3in /  1024.7hPa Calm     96% 0in /  0.0mm 25 W/m2
08:38 31.6 °F /  -0.2 °C 30.6 °F /  -0.8 °C 30.3in /  1025.1hPa Calm     96% 0in /  0.0mm 26 W/m2
08:43 31.8 °F /  -0.1 °C 30.7 °F /  -0.7 °C 30.3in /  1025.1hPa Calm     96% 0in /  0.0mm 28 W/m2
08:48 31.6 °F /  -0.2 °C 30.6 °F /  -0.8 °C 30.3in /  1025.1hPa Calm     96% 0in /  0.0mm 35 W/m2
08:53 31.8 °F /  -0.1 °C 30.7 °F /  -0.7 °C 30.3in /  1025.4hPa Calm     96% 0in /  0.0mm 40 W/m2
08:58 31.8 °F /  -0.1 °C 30.7 °F /  -0.7 °C 30.3in /  1025.4hPa Calm     96% 0in /  0.0mm 47 W/m2
09:03 32 °F /  0 °C 30.9 °F /  -0.6 °C 30.3in /  1025.4hPa Calm     96% 0in /  0.0mm 51 W/m2
09:08 32.2 °F /  0.1 °C 31.5 °F /  -0.3 °C 30.3in /  1025.4hPa Calm     97% 0in /  0.0mm 56 W/m2
09:13 32.2 °F /  0.1 °C 31.1 °F /  -0.5 °C 30.3in /  1025.4hPa SW 1mph /  1.6km/h 1mph /  1.6km/h 96% 0in /  0.0mm 62 W/m2
09:18 32.4 °F /  0.2 °C 31.3 °F /  -0.4 °C 30.3in /  1025.4hPa Calm     96% 0in /  0.0mm 70 W/m2
09:23 32.4 °F /  0.2 °C 31.3 °F /  -0.4 °C 30.3in /  1025.1hPa Calm     96% 0in /  0.0mm 77 W/m2
09:28 32.5 °F /  0.3 °C 31.8 °F /  -0.1 °C 30.3in /  1025.1hPa Calm     97% 0in /  0.0mm 90 W/m2
09:33 32.5 °F /  0.3 °C 31.8 °F /  -0.1 °C 30.3in /  1025.1hPa Calm     97% 0in /  0.0mm 88 W/m2
09:38 32.7 °F /  0.4 °C 32 °F /  0 °C 30.3in /  1025.1hPa Calm     97% 0in /  0.0mm 79 W/m2
09:43 32.7 °F /  0.4 °C 32 °F /  0 °C 30.3in /  1025.1hPa Calm     97% 0in /  0.0mm 77 W/m2
09:48 32.9 °F /  0.5 °C 32.2 °F /  0.1 °C 30.3in /  1025.1hPa Calm     97% 0in /  0.0mm 72 W/m2
09:53 33.1 °F /  0.6 °C 32.4 °F /  0.2 °C 30.3in /  1025.1hPa Calm     97% 0in /  0.0mm 69 W/m2
09:58 33.4 °F /  0.8 °C 32.7 °F /  0.4 °C 30.3in /  1025.1hPa Calm     97% 0in /  0.0mm 77 W/m2
10:03 33.6 °F /  0.9 °C 32.9 °F /  0.5 °C 30.3in /  1025.1hPa Calm     97% 0in /  0.0mm 86 W/m2
10:08 34 °F /  1.1 °C 33.3 °F /  0.7 °C 30.3in /  1025.1hPa Calm     97% 0.01in /  0.2mm 91 W/m2
10:13 34.2 °F /  1.2 °C 33.4 °F /  0.8 °C 30.3in /  1025.1hPa SSW 0.9mph /  1.4km/h 1mph /  1.6km/h 97% 0.01in /  0.2mm 98 W/m2
10:18 34.3 °F /  1.3 °C 33.6 °F /  0.9 °C 30.3in /  1025.1hPa ESE 2mph /  3.2km/h 3mph /  4.8km/h 97% 0.01in /  0.2mm 109 W/m2
10:23 34.5 °F /  1.4 °C 33.8 °F /  1 °C 30.3in /  1025.1hPa ESE 2mph /  3.2km/h 3mph /  4.8km/h 97% 0.01in /  0.2mm 116 W/m2
10:28 34.9 °F /  1.6 °C 34.2 °F /  1.2 °C 30.3in /  1025.4hPa East 0.9mph /  1.4km/h 2mph /  3.2km/h 97% 0.01in /  0.2mm 130 W/m2
10:33 35.1 °F /  1.7 °C 34.3 °F /  1.3 °C 30.3in /  1025.1hPa Calm   1mph /  1.6km/h 97% 0.01in /  0.2mm 134 W/m2
10:38 35.4 °F /  1.9 °C 34.7 °F /  1.5 °C 30.3in /  1025.4hPa East 2mph /  3.2km/h 2mph /  3.2km/h 97% 0.01in /  0.2mm 116 W/m2
10:43 35.4 °F /  1.9 °C 34.7 °F /  1.5 °C 30.3in /  1025.1hPa Calm   1mph /  1.6km/h 97% 0.01in /  0.2mm 88 W/m2
10:48 35.6 °F /  2 °C 34.9 °F /  1.6 °C 30.3in /  1025.1hPa Calm     97% 0.01in /  0.2mm 86 W/m2
10:53 35.6 °F /  2 °C 34.9 °F /  1.6 °C 30.3in /  1025.4hPa ESE 0.9mph /  1.4km/h 2mph /  3.2km/h 97% 0.01in /  0.2mm 81 W/m2
10:58 35.8 °F /  2.1 °C 35.1 °F /  1.7 °C 30.3in /  1025.4hPa Calm     97% 0.01in /  0.2mm 83 W/m2
11:03 35.8 °F /  2.1 °C 35.1 °F /  1.7 °C 30.3in /  1025.4hPa Calm   2mph /  3.2km/h 97% 0.01in /  0.2mm 93 W/m2
11:08 35.8 °F /  2.1 °C 35.1 °F /  1.7 °C 30.3in /  1025.4hPa Calm     97% 0in /  0.0mm 107 W/m2
11:14 36 °F /  2.2 °C 35.2 °F /  1.8 °C 30.3in /  1025.4hPa ESE 0.9mph /  1.4km/h 1mph /  1.6km/h 97% 0in /  0.0mm 125 W/m2
11:19 36 °F /  2.2 °C 35.2 °F /  1.8 °C 30.3in /  1025.4hPa Calm   1mph /  1.6km/h 97% 0in /  0.0mm 127 W/m2
11:24 36.1 °F /  2.3 °C 35.4 °F /  1.9 °C 30.3in /  1025.4hPa Calm   2mph /  3.2km/h 97% 0in /  0.0mm 123 W/m2
11:29 36.3 °F /  2.4 °C 35.6 °F /  2 °C 30.3in /  1025.4hPa NE 2mph /  3.2km/h 2mph /  3.2km/h 97% 0in /  0.0mm 127 W/m2
11:34 36.5 °F /  2.5 °C 35.8 °F /  2.1 °C 30.3in /  1025.4hPa Calm   2mph /  3.2km/h 97% 0in /  0.0mm 111 W/m2
11:39 36.7 °F /  2.6 °C 36 °F /  2.2 °C 30.3in /  1025.4hPa Calm     97% 0in /  0.0mm 97 W/m2
11:44 36.9 °F /  2.7 °C 36.1 °F /  2.3 °C 30.3in /  1025.1hPa ENE 0.9mph /  1.4km/h 2mph /  3.2km/h 97% 0in /  0.0mm 109 W/m2
11:49 37 °F /  2.8 °C 36.3 °F /  2.4 °C 30.3in /  1025.1hPa SE 0.9mph /  1.4km/h 3mph /  4.8km/h 97% 0in /  0.0mm 149 W/m2
11:54 37.4 °F /  3 °C 36.7 °F /  2.6 °C 30.3in /  1025.1hPa Calm   2mph /  3.2km/h 97% 0in /  0.0mm 185 W/m2
11:59 37.8 °F /  3.2 °C 37 °F /  2.8 °C 30.3in /  1025.1hPa Calm   2mph /  3.2km/h 97% 0in /  0.0mm 125 W/m2
12:04 37.9 °F /  3.3 °C 36.9 °F /  2.7 °C 30.3in /  1025.1hPa ESE 0.9mph /  1.4km/h 2mph /  3.2km/h 96% 0in /  0.0mm 120 W/m2
12:09 38.1 °F /  3.4 °C 37 °F /  2.8 °C 30.3in /  1025.1hPa Calm     96% 0in /  0.0mm 107 W/m2
12:14 38.5 °F /  3.6 °C 37.4 °F /  3 °C 30.3in /  1025.1hPa Calm   1mph /  1.6km/h 96% 0in /  0.0mm 113 W/m2
12:19 38.7 °F /  3.7 °C 37.6 °F /  3.1 °C 30.3in /  1025.1hPa Calm   2mph /  3.2km/h 96% 0in /  0.0mm 128 W/m2
12:24 38.8 °F /  3.8 °C 37.8 °F /  3.2 °C 30.3in /  1024.7hPa Calm     96% 0in /  0.0mm 120 W/m2
12:29 39 °F /  3.9 °C 37.8 °F /  3.2 °C 30.3in /  1024.7hPa East 0.9mph /  1.4km/h 2mph /  3.2km/h 95% 0in /  0.0mm 130 W/m2
12:34 39.4 °F /  4.1 °C 38.1 °F /  3.4 °C 30.3in /  1024.7hPa Calm   2mph /  3.2km/h 95% 0in /  0.0mm 123 W/m2
12:39 39.6 °F /  4.2 °C 38.3 °F /  3.5 °C 30.3in /  1024.7hPa Calm   3mph /  4.8km/h 95% 0in /  0.0mm 114 W/m2
12:44 39.9 °F /  4.4 °C 38.3 °F /  3.5 °C 30.3in /  1024.7hPa Calm     94% 0in /  0.0mm 116 W/m2
12:49 40.3 °F /  4.6 °C 38.7 °F /  3.7 °C 30.3in /  1024.4hPa East 0.9mph /  1.4km/h 1mph /  1.6km/h 94% 0in /  0.0mm 123 W/m2
12:54 40.5 °F /  4.7 °C 38.7 °F /  3.7 °C 30.3in /  1024.7hPa East 0.9mph /  1.4km/h 2mph /  3.2km/h 93% 0in /  0.0mm 121 W/m2
12:59 40.6 °F /  4.8 °C 38.5 °F /  3.6 °C 30.3in /  1024.7hPa ENE 2.9mph /  4.7km/h 3mph /  4.8km/h 92% 0in /  0.0mm 123 W/m2
13:04 41 °F /  5 °C 38.8 °F /  3.8 °C 30.3in /  1024.7hPa Calm   1mph /  1.6km/h 92% 0in /  0.0mm 230 W/m2
13:09 41.4 °F /  5.2 °C 39 °F /  3.9 °C 30.3in /  1024.4hPa ENE 2mph /  3.2km/h 4mph /  6.4km/h 91% 0in /  0.0mm 148 W/m2
13:14 41.5 °F /  5.3 °C 39.2 °F /  4 °C 30.3in /  1024.4hPa ENE 2mph /  3.2km/h 3mph /  4.8km/h 91% 0in /  0.0mm 100 W/m2
13:19 41.7 °F /  5.4 °C 39 °F /  3.9 °C 30.3in /  1024.4hPa ENE 0.9mph /  1.4km/h 4mph /  6.4km/h 90% 0in /  0.0mm 98 W/m2
13:24 41.9 °F /  5.5 °C 39.2 °F /  4 °C 30.2in /  1024.0hPa Calm     90% 0in /  0.0mm 116 W/m2
13:29 42.1 °F /  5.6 °C 39.4 °F /  4.1 °C 30.2in /  1024.0hPa Calm   1mph /  1.6km/h 90% 0in /  0.0mm 107 W/m2
13:34 42.3 °F /  5.7 °C 39.2 °F /  4 °C 30.3in /  1024.4hPa Calm   2mph /  3.2km/h 89% 0in /  0.0mm 100 W/m2
13:39 42.4 °F /  5.8 °C 39.4 °F /  4.1 °C 30.3in /  1024.4hPa Calm   2mph /  3.2km/h 89% 0in /  0.0mm 90 W/m2
13:44 42.6 °F /  5.9 °C 39.4 °F /  4.1 °C 30.2in /  1024.0hPa Calm   2mph /  3.2km/h 88% 0in /  0.0mm 114 W/m2
13:49 43 °F /  6.1 °C 39.7 °F /  4.3 °C 30.2in /  1024.0hPa NE 2mph /  3.2km/h 2mph /  3.2km/h 88% 0in /  0.0mm 90 W/m2
13:54 43.2 °F /  6.2 °C 39.6 °F /  4.2 °C 30.2in /  1024.0hPa Calm   2mph /  3.2km/h 87% 0in /  0.0mm 79 W/m2
13:59 43.3 °F /  6.3 °C 39.7 °F /  4.3 °C 30.2in /  1024.0hPa Calm   1mph /  1.6km/h 87% 0in /  0.0mm 72 W/m2
14:04 43.5 °F /  6.4 °C 39.9 °F /  4.4 °C 30.2in /  1024.0hPa East 2mph /  3.2km/h 3mph /  4.8km/h 87% 0in /  0.0mm 77 W/m2
14:09 43.5 °F /  6.4 °C 39.6 °F /  4.2 °C 30.2in /  1024.0hPa ENE 2mph /  3.2km/h 3mph /  4.8km/h 86% 0in /  0.0mm 74 W/m2
14:14 43.9 °F /  6.6 °C 39.7 °F /  4.3 °C 30.2in /  1023.7hPa Calm   2mph /  3.2km/h 85% 0in /  0.0mm 76 W/m2
14:19 43.9 °F /  6.6 °C 39.7 °F /  4.3 °C 30.2in /  1023.7hPa Calm   3mph /  4.8km/h 85% 0in /  0.0mm 77 W/m2
14:24 44.1 °F /  6.7 °C 39.9 °F /  4.4 °C 30.2in /  1023.7hPa East 0.9mph /  1.4km/h 1mph /  1.6km/h 85% 0in /  0.0mm 76 W/m2
14:29 44.1 °F /  6.7 °C 39.9 °F /  4.4 °C 30.2in /  1023.7hPa Calm   2mph /  3.2km/h 85% 0in /  0.0mm 72 W/m2
14:34 44.1 °F /  6.7 °C 39.9 °F /  4.4 °C 30.2in /  1023.7hPa East 2mph /  3.2km/h 4mph /  6.4km/h 85% 0in /  0.0mm 69 W/m2
14:39 44.2 °F /  6.8 °C 40.1 °F /  4.5 °C 30.2in /  1024.0hPa Calm   2mph /  3.2km/h 85% 0in /  0.0mm 67 W/m2
14:44 44.2 °F /  6.8 °C 39.7 °F /  4.3 °C 30.2in /  1024.0hPa East 2.9mph /  4.7km/h 4mph /  6.4km/h 84% 0in /  0.0mm 70 W/m2
14:49 44.2 °F /  6.8 °C 39.7 °F /  4.3 °C 30.2in /  1023.7hPa ESE 0.9mph /  1.4km/h 2mph /  3.2km/h 84% 0in /  0.0mm 67 W/m2
14:54 44.2 °F /  6.8 °C 39.7 °F /  4.3 °C 30.2in /  1024.0hPa Calm     84% 0in /  0.0mm 70 W/m2
14:59 44.2 °F /  6.8 °C 39.7 °F /  4.3 °C 30.2in /  1024.0hPa ESE 0.9mph /  1.4km/h 3mph /  4.8km/h 84% 0in /  0.0mm 70 W/m2
15:04 44.2 °F /  6.8 °C 39.7 °F /  4.3 °C 30.2in /  1024.0hPa ESE 2mph /  3.2km/h 2mph /  3.2km/h 84% 0in /  0.0mm 67 W/m2
15:09 44.2 °F /  6.8 °C 39.7 °F /  4.3 °C 30.2in /  1024.0hPa Calm   1mph /  1.6km/h 84% 0in /  0.0mm 63 W/m2
15:14 44.2 °F /  6.8 °C 40.1 °F /  4.5 °C 30.2in /  1024.0hPa Calm   3mph /  4.8km/h 85% 0in /  0.0mm 62 W/m2
15:19 44.2 °F /  6.8 °C 40.1 °F /  4.5 °C 30.2in /  1024.0hPa Calm     85% 0in /  0.0mm 56 W/m2
15:24 44.1 °F /  6.7 °C 39.9 °F /  4.4 °C 30.2in /  1023.7hPa Calm   2mph /  3.2km/h 85% 0in /  0.0mm 56 W/m2
15:29 44.1 °F /  6.7 °C 40.1 °F /  4.5 °C 30.2in /  1023.7hPa Calm     86% 0in /  0.0mm 56 W/m2
15:34 44.1 °F /  6.7 °C 40.1 °F /  4.5 °C 30.2in /  1023.7hPa Calm   1mph /  1.6km/h 86% 0in /  0.0mm 54 W/m2
15:39 43.9 °F /  6.6 °C 39.9 °F /  4.4 °C 30.2in /  1023.7hPa SSE 0.9mph /  1.4km/h 1mph /  1.6km/h 86% 0in /  0.0mm 53 W/m2
15:44 43.9 °F /  6.6 °C 39.9 °F /  4.4 °C 30.2in /  1023.7hPa Calm     86% 0in /  0.0mm 49 W/m2
15:49 43.7 °F /  6.5 °C 39.7 °F /  4.3 °C 30.2in /  1023.7hPa Calm     86% 0in /  0.0mm 46 W/m2
15:54 43.5 °F /  6.4 °C 39.9 °F /  4.4 °C 30.2in /  1023.7hPa Calm     87% 0in /  0.0mm 40 W/m2
15:59 43.5 °F /  6.4 °C 39.9 °F /  4.4 °C 30.2in /  1023.7hPa Calm     87% 0in /  0.0mm 35 W/m2
16:04 43.3 °F /  6.3 °C 39.7 °F /  4.3 °C 30.2in /  1024.0hPa Calm     87% 0in /  0.0mm 30 W/m2
16:09 43.2 °F /  6.2 °C 39.6 °F /  4.2 °C 30.2in /  1024.0hPa Calm     87% 0in /  0.0mm 30 W/m2
16:14 43 °F /  6.1 °C 39.4 °F /  4.1 °C 30.2in /  1024.0hPa Calm     87% 0in /  0.0mm 28 W/m2
16:19 42.8 °F /  6 °C 39.2 °F /  4 °C 30.2in /  1023.7hPa Calm     87% 0in /  0.0mm 28 W/m2
16:24 42.6 °F /  5.9 °C 39.4 °F /  4.1 °C 30.2in /  1023.7hPa Calm     88% 0in /  0.0mm 26 W/m2
16:29 42.4 °F /  5.8 °C 39.2 °F /  4 °C 30.2in /  1023.7hPa Calm     88% 0in /  0.0mm 23 W/m2
16:34 42.3 °F /  5.7 °C 39 °F /  3.9 °C 30.2in /  1023.7hPa Calm     88% 0in /  0.0mm 21 W/m2
16:40 42.1 °F /  5.6 °C 38.8 °F /  3.8 °C 30.2in /  1023.7hPa Calm     88% 0in /  0.0mm 18 W/m2
16:45 42.1 °F /  5.6 °C 38.8 °F /  3.8 °C 30.2in /  1023.7hPa Calm     88% 0in /  0.0mm 14 W/m2
16:50 41.7 °F /  5.4 °C 38.7 °F /  3.7 °C 30.2in /  1024.0hPa Calm     89% 0in /  0.0mm 11 W/m2
16:55 41.5 °F /  5.3 °C 38.5 °F /  3.6 °C 30.2in /  1024.0hPa Calm     89% 0in /  0.0mm 7 W/m2
17:00 41.4 °F /  5.2 °C 38.3 °F /  3.5 °C 30.2in /  1024.0hPa Calm     89% 0in /  0.0mm 5 W/m2
17:05 41.2 °F /  5.1 °C 38.1 °F /  3.4 °C 30.2in /  1023.7hPa Calm     89% 0in /  0.0mm 0 W/m2
17:10 40.8 °F /  4.9 °C 38.1 °F /  3.4 °C 30.2in /  1023.7hPa Calm     90% 0in /  0.0mm 0 W/m2
17:15 40.6 °F /  4.8 °C 37.9 °F /  3.3 °C 30.2in /  1023.7hPa Calm     90% 0in /  0.0mm 0 W/m2
17:20 40.5 °F /  4.7 °C 37.8 °F /  3.2 °C 30.2in /  1024.0hPa Calm     90% 0in /  0.0mm 0 W/m2
17:25 40.3 °F /  4.6 °C 37.6 °F /  3.1 °C 30.2in /  1024.0hPa Calm     90% 0in /  0.0mm 0 W/m2
17:30 40.1 °F /  4.5 °C 37.8 °F /  3.2 °C 30.2in /  1023.7hPa Calm     91% 0in /  0.0mm 0 W/m2
17:35 39.9 °F /  4.4 °C 37.6 °F /  3.1 °C 30.2in /  1023.7hPa Calm     91% 0in /  0.0mm 0 W/m2
17:40 39.7 °F /  4.3 °C 37.4 °F /  3 °C 30.2in /  1023.7hPa Calm     91% 0in /  0.0mm 0 W/m2
17:45 39.6 °F /  4.2 °C 37.2 °F /  2.9 °C 30.2in /  1023.7hPa Calm     91% 0in /  0.0mm 0 W/m2
17:50 39.4 °F /  4.1 °C 37.2 °F /  2.9 °C 30.2in /  1023.7hPa Calm     92% 0in /  0.0mm 0 W/m2
17:55 39.4 °F /  4.1 °C 37.2 °F /  2.9 °C 30.2in /  1024.0hPa Calm     92% 0in /  0.0mm 0 W/m2
18:00 39 °F /  3.9 °C 36.9 °F /  2.7 °C 30.2in /  1024.0hPa Calm     92% 0in /  0.0mm 0 W/m2
18:05 38.8 °F /  3.8 °C 36.7 °F /  2.6 °C 30.2in /  1024.0hPa Calm     92% 0in /  0.0mm 0 W/m2
18:10 38.8 °F /  3.8 °C 36.7 °F /  2.6 °C 30.2in /  1024.0hPa Calm     92% 0in /  0.0mm 0 W/m2
18:15 38.8 °F /  3.8 °C 36.7 °F /  2.6 °C 30.2in /  1024.0hPa Calm     92% 0in /  0.0mm 0 W/m2
18:20 38.7 °F /  3.7 °C 36.9 °F /  2.7 °C 30.2in /  1023.7hPa Calm     93% 0in /  0.0mm 0 W/m2
18:25 38.5 °F /  3.6 °C 36.7 °F /  2.6 °C 30.2in /  1023.7hPa Calm     93% 0in /  0.0mm 0 W/m2
18:30 38.5 °F /  3.6 °C 36.7 °F /  2.6 °C 30.2in /  1024.0hPa Calm     93% 0in /  0.0mm 0 W/m2
18:35 38.3 °F /  3.5 °C 36.5 °F /  2.5 °C 30.2in /  1024.0hPa Calm     93% 0in /  0.0mm 0 W/m2
18:40 38.1 °F /  3.4 °C 36.3 °F /  2.4 °C 30.2in /  1024.0hPa Calm     93% 0in /  0.0mm 0 W/m2
18:45 37.9 °F /  3.3 °C 36.1 °F /  2.3 °C 30.2in /  1024.0hPa Calm     93% 0in /  0.0mm 0 W/m2
18:50 37.9 °F /  3.3 °C 36.1 °F /  2.3 °C 30.2in /  1024.0hPa Calm     93% 0in /  0.0mm 0 W/m2
18:55 37.9 °F /  3.3 °C 36.3 °F /  2.4 °C 30.2in /  1024.0hPa Calm     94% 0in /  0.0mm 0 W/m2
19:00 37.8 °F /  3.2 °C 36.1 °F /  2.3 °C 30.2in /  1024.0hPa Calm     94% 0in /  0.0mm 0 W/m2
19:05 37.8 °F /  3.2 °C 36.1 °F /  2.3 °C 30.3in /  1024.4hPa Calm     94% 0in /  0.0mm 0 W/m2
19:10 37.8 °F /  3.2 °C 36.1 °F /  2.3 °C 30.2in /  1024.0hPa Calm     94% 0in /  0.0mm 0 W/m2
19:15 37.8 °F /  3.2 °C 36.1 °F /  2.3 °C 30.2in /  1024.0hPa Calm     94% 0in /  0.0mm 0 W/m2
19:21 37.8 °F /  3.2 °C 36.1 °F /  2.3 °C 30.2in /  1024.0hPa Calm     94% 0in /  0.0mm 0 W/m2
19:26 37.6 °F /  3.1 °C 36 °F /  2.2 °C 30.2in /  1024.0hPa Calm     94% 0in /  0.0mm 0 W/m2
19:31 37.6 °F /  3.1 °C 36 °F /  2.2 °C 30.2in /  1024.0hPa Calm     94% 0in /  0.0mm 0 W/m2
19:36 37.4 °F /  3 °C 35.8 °F /  2.1 °C 30.2in /  1024.0hPa Calm     94% 0in /  0.0mm 0 W/m2
19:41 37.4 °F /  3 °C 35.8 °F /  2.1 °C 30.2in /  1024.0hPa Calm     94% 0in /  0.0mm 0 W/m2
19:46 37.2 °F /  2.9 °C 35.6 °F /  2 °C 30.2in /  1024.0hPa Calm     94% 0in /  0.0mm 0 W/m2
19:51 37.2 °F /  2.9 °C 35.6 °F /  2 °C 30.2in /  1024.0hPa Calm     94% 0in /  0.0mm 0 W/m2
19:56 37 °F /  2.8 °C 35.4 °F /  1.9 °C 30.2in /  1024.0hPa Calm     94% 0in /  0.0mm 0 W/m2
20:01 37 °F /  2.8 °C 35.8 °F /  2.1 °C 30.2in /  1024.0hPa Calm     95% 0in /  0.0mm 0 W/m2
20:06 36.9 °F /  2.7 °C 35.2 °F /  1.8 °C 30.2in /  1024.0hPa Calm     94% 0in /  0.0mm 0 W/m2
20:11 36.9 °F /  2.7 °C 35.2 °F /  1.8 °C 30.2in /  1024.0hPa Calm     94% 0in /  0.0mm 0 W/m2
20:16 36.7 °F /  2.6 °C 35.4 °F /  1.9 °C 30.2in /  1024.0hPa Calm     95% 0in /  0.0mm 0 W/m2
20:21 36.7 °F /  2.6 °C 35.4 °F /  1.9 °C 30.3in /  1024.4hPa Calm     95% 0in /  0.0mm 0 W/m2
20:26 36.9 °F /  2.7 °C 35.6 °F /  2 °C 30.3in /  1024.4hPa Calm     95% 0in /  0.0mm 0 W/m2
20:31 36.9 °F /  2.7 °C 35.6 °F /  2 °C 30.3in /  1024.4hPa Calm     95% 0in /  0.0mm 0 W/m2
20:36 36.9 °F /  2.7 °C 35.6 °F /  2 °C 30.3in /  1024.4hPa Calm     95% 0in /  0.0mm 0 W/m2
20:41 36.9 °F /  2.7 °C 35.6 °F /  2 °C 30.3in /  1024.4hPa Calm     95% 0in /  0.0mm 0 W/m2
20:46 36.7 °F /  2.6 °C 35.4 °F /  1.9 °C 30.3in /  1024.4hPa Calm     95% 0in /  0.0mm 0 W/m2
20:51 36.7 °F /  2.6 °C 35.4 °F /  1.9 °C 30.3in /  1024.4hPa Calm     95% 0in /  0.0mm 0 W/m2
20:56 36.3 °F /  2.4 °C 35.1 °F /  1.7 °C 30.3in /  1024.4hPa Calm     95% 0in /  0.0mm 0 W/m2
21:01 36.3 °F /  2.4 °C 35.1 °F /  1.7 °C 30.3in /  1024.4hPa Calm     95% 0in /  0.0mm 0 W/m2
21:06 36.1 °F /  2.3 °C 34.9 °F /  1.6 °C 30.3in /  1024.4hPa Calm     95% 0in /  0.0mm 0 W/m2
21:11 36.1 °F /  2.3 °C 34.9 °F /  1.6 °C 30.3in /  1024.4hPa Calm     95% 0in /  0.0mm 0 W/m2
21:16 36 °F /  2.2 °C 34.7 °F /  1.5 °C 30.3in /  1024.7hPa Calm     95% 0in /  0.0mm 0 W/m2
21:21 36 °F /  2.2 °C 34.7 °F /  1.5 °C 30.3in /  1024.7hPa Calm     95% 0in /  0.0mm 0 W/m2
21:26 35.8 °F /  2.1 °C 34.5 °F /  1.4 °C 30.3in /  1024.7hPa Calm     95% 0in /  0.0mm 0 W/m2
21:31 35.8 °F /  2.1 °C 34.5 °F /  1.4 °C 30.3in /  1024.7hPa Calm     95% 0in /  0.0mm 0 W/m2
21:36 35.4 °F /  1.9 °C 34.2 °F /  1.2 °C 30.3in /  1024.7hPa Calm     95% 0in /  0.0mm 0 W/m2
21:41 35.4 °F /  1.9 °C 34.2 °F /  1.2 °C 30.3in /  1024.7hPa Calm     95% 0in /  0.0mm 0 W/m2
21:46 35.2 °F /  1.8 °C 34 °F /  1.1 °C 30.3in /  1024.7hPa Calm     95% 0in /  0.0mm 0 W/m2
21:51 35.2 °F /  1.8 °C 34 °F /  1.1 °C 30.3in /  1024.7hPa Calm     95% 0in /  0.0mm 0 W/m2
21:56 35.1 °F /  1.7 °C 33.8 °F /  1 °C 30.3in /  1024.7hPa Calm     95% 0in /  0.0mm 0 W/m2
22:01 35.1 °F /  1.7 °C 33.8 °F /  1 °C 30.3in /  1024.7hPa Calm     95% 0in /  0.0mm 0 W/m2
22:06 34.9 °F /  1.6 °C 33.6 °F /  0.9 °C 30.3in /  1024.7hPa Calm     95% 0in /  0.0mm 0 W/m2
22:11 34.9 °F /  1.6 °C 33.6 °F /  0.9 °C 30.3in /  1024.7hPa Calm     95% 0in /  0.0mm 0 W/m2
22:16 34.5 °F /  1.4 °C 33.3 °F /  0.7 °C 30.3in /  1024.7hPa Calm     95% 0in /  0.0mm 0 W/m2
22:21 34.5 °F /  1.4 °C 33.3 °F /  0.7 °C 30.3in /  1024.7hPa Calm     95% 0in /  0.0mm 0 W/m2
22:26 34.3 °F /  1.3 °C 33.1 °F /  0.6 °C 30.3in /  1024.7hPa Calm     95% 0in /  0.0mm 0 W/m2
22:31 34.3 °F /  1.3 °C 33.1 °F /  0.6 °C 30.3in /  1024.7hPa Calm     95% 0in /  0.0mm 0 W/m2
22:36 34.3 °F /  1.3 °C 33.1 °F /  0.6 °C 30.3in /  1024.7hPa Calm     95% 0in /  0.0mm 0 W/m2
22:41 34.2 °F /  1.2 °C 32.9 °F /  0.5 °C 30.3in /  1024.7hPa Calm     95% 0in /  0.0mm 0 W/m2
22:46 34.2 °F /  1.2 °C 32.9 °F /  0.5 °C 30.3in /  1024.4hPa Calm     95% 0in /  0.0mm 0 W/m2
22:51 34.2 °F /  1.2 °C 32.9 °F /  0.5 °C 30.3in /  1024.4hPa Calm     95% 0in /  0.0mm 0 W/m2
22:56 34 °F /  1.1 °C 32.7 °F /  0.4 °C 30.3in /  1024.4hPa Calm     95% 0in /  0.0mm 0 W/m2
23:01 34 °F /  1.1 °C 32.7 °F /  0.4 °C 30.3in /  1024.4hPa Calm     95% 0in /  0.0mm 0 W/m2
23:06 33.8 °F /  1 °C 32.5 °F /  0.3 °C 30.3in /  1024.4hPa Calm     95% 0in /  0.0mm 0 W/m2
23:11 33.8 °F /  1 °C 32.5 °F /  0.3 °C 30.3in /  1024.4hPa Calm     95% 0in /  0.0mm 0 W/m2
23:16 33.8 °F /  1 °C 32.7 °F /  0.4 °C 30.3in /  1024.4hPa Calm     96% 0in /  0.0mm 0 W/m2
23:21 33.8 °F /  1 °C 32.7 °F /  0.4 °C 30.3in /  1024.4hPa Calm     96% 0in /  0.0mm 0 W/m2
23:26 33.8 °F /  1 °C 32.7 °F /  0.4 °C 30.3in /  1024.4hPa Calm     96% 0in /  0.0mm 0 W/m2
23:31 33.6 °F /  0.9 °C 32.5 °F /  0.3 °C 30.3in /  1024.4hPa Calm     96% 0in /  0.0mm 0 W/m2
23:36 33.6 °F /  0.9 °C 32.5 °F /  0.3 °C 30.3in /  1024.4hPa Calm     96% 0in /  0.0mm 0 W/m2
23:41 33.6 °F /  0.9 °C 32.5 °F /  0.3 °C 30.3in /  1024.4hPa Calm     96% 0in /  0.0mm 0 W/m2
23:46 33.6 °F /  0.9 °C 32.5 °F /  0.3 °C 30.3in /  1024.4hPa Calm     96% 0in /  0.0mm 0 W/m2
23:51 33.6 °F /  0.9 °C 32.5 °F /  0.3 °C 30.3in /  1024.4hPa Calm     96% 0in /  0.0mm 0 W/m2
23:56 33.6 °F /  0.9 °C 32.5 °F /  0.3 °C 30.3in /  1024.4hPa Calm     96% 0in /  0.0mm 0 W/m2
Juneau County Weather
Compliments of Weather Underground - 4 mb